Time;durP1;ratioP1;P1;durP2;ratioP2;P2;SDS_P1;SDS_P2;PMS_P1;PMS_P2;Temp;Humidity;BMP_temperature;BMP_pressure;BME280_temperature;BME280_humidity;BME280_pressure;Samples;Min_cycle;Max_cycle;Signal;HPM_P1;HPM_P2
2023/12/22 00:00:30;;;;;;;20.15;11.73;;;;;;;6.92;92.13;102063.78;10351795;28;97259;-84
2023/12/22 00:05:33;;;;;;;25.40;12.05;;;;;;;6.96;91.86;102071.63;10379739;28;96825;-84
2023/12/22 00:10:38;;;;;;;22.63;11.15;;;;;;;6.97;91.72;102082.97;10379791;28;97391;-83
2023/12/22 00:15:43;;;;;;;26.20;12.82;;;;;;;7.06;91.71;102075.16;10379315;28;96886;-84
2023/12/22 00:20:47;;;;;;;;;;;;;;;6.99;91.29;102066.41;10379260;28;96797;-84
2023/12/22 00:25:54;;;;;;;22.20;10.45;;;;;;;6.95;90.61;102062.03;10380258;28;97057;-85
2023/12/22 00:30:59;;;;;;;25.75;11.93;;;;;;;6.81;91.74;102054.09;10379261;28;96616;-85
2023/12/22 00:36:07;;;;;;;23.02;11.30;;;;;;;6.71;92.94;102060.13;10378453;28;97035;-84
2023/12/22 00:41:14;;;;;;;24.70;11.10;;;;;;;6.63;93.70;102061.84;10378528;28;97343;-84
2023/12/22 00:46:19;;;;;;;23.23;11.60;;;;;;;6.59;94.56;102051.38;10378563;28;97243;-84
2023/12/22 00:51:25;;;;;;;;;;;;;;;6.56;95.07;102039.16;10378607;28;96637;-84
2023/12/22 00:56:33;;;;;;;20.80;10.17;;;;;;;6.58;94.92;102032.19;10378667;28;96677;-84
2023/12/22 01:01:38;;;;;;;21.08;10.82;;;;;;;6.56;94.95;102019.97;10378120;28;97168;-84
2023/12/22 01:06:43;;;;;;;22.50;10.20;;;;;;;6.58;94.65;102019.13;10377539;28;96544;-84
2023/12/22 01:11:50;;;;;;;;;;;;;;;6.62;94.94;102018.28;10378443;28;96676;-84
2023/12/22 01:16:54;;;;;;;22.13;9.95;;;;;;;6.67;94.47;102010.44;10378413;28;96624;-84
2023/12/22 01:22:00;;;;;;;20.45;9.93;;;;;;;6.63;94.30;102009.53;10378238;28;97189;-84
2023/12/22 01:27:08;;;;;;;20.50;10.00;;;;;;;6.49;95.29;102006.00;10376455;28;96817;-84
2023/12/22 01:32:12;;;;;;;22.77;10.82;;;;;;;6.53;95.64;101999.91;10377150;28;97100;-84
2023/12/22 01:37:16;;;;;;;19.45;9.25;;;;;;;6.48;95.38;102003.38;10376628;28;96673;-83
2023/12/22 01:42:23;;;;;;;22.05;9.77;;;;;;;6.47;95.22;102005.09;10377274;28;96579;-83
2023/12/22 01:47:29;;;;;;;20.58;10.73;;;;;;;6.48;95.34;102011.22;10376912;28;97752;-83
2023/12/22 01:52:33;;;;;;;;;;;;;;;6.45;95.43;102009.47;10377013;28;97993;-84
2023/12/22 01:57:41;;;;;;;21.02;9.65;;;;;;;6.44;96.02;101999.88;10376002;28;96880;-84
2023/12/22 02:02:46;;;;;;;24.40;10.60;;;;;;;6.49;96.17;101985.06;10377522;28;96662;-84
2023/12/22 02:07:50;;;;;;;;;;;;;;;6.47;95.64;101989.41;10376287;28;96889;-84
2023/12/22 02:12:58;;;;;;;21.50;9.32;;;;;;;6.43;95.76;101979.84;10377098;28;97027;-83
2023/12/22 02:18:09;;;;;;;20.65;9.80;;;;;;;6.42;95.56;101985.06;10374541;28;97152;-84
2023/12/22 02:23:16;;;;;;;17.50;8.93;;;;;;;6.41;95.76;101993.75;10375697;28;96652;-84
2023/12/22 02:28:24;;;;;;;22.30;9.68;;;;;;;6.37;96.35;101990.25;10375930;28;96742;-84
2023/12/22 02:33:33;;;;;;;19.23;8.98;;;;;;;6.38;96.28;102006.81;10375883;28;96662;-84
2023/12/22 02:38:43;;;;;;;18.83;8.65;;;;;;;6.40;96.03;102002.47;10375178;28;97330;-83
2023/12/22 02:43:50;;;;;;;15.63;8.68;;;;;;;6.37;95.80;102005.03;10375710;28;96646;-84
2023/12/22 02:48:55;;;;;;;16.60;7.93;;;;;;;6.41;96.05;102012.06;10375512;28;96589;-84
2023/12/22 02:54:02;;;;;;;19.77;9.00;;;;;;;6.43;95.41;102011.19;10370270;28;96661;-84
2023/12/22 02:59:06;;;;;;;17.75;8.23;;;;;;;6.46;95.35;102008.59;10375336;28;97206;-84
2023/12/22 03:04:11;;;;;;;14.47;7.90;;;;;;;6.43;95.16;101998.13;10374894;28;97822;-84
2023/12/22 03:09:16;;;;;;;20.07;8.27;;;;;;;6.38;95.51;101992.00;10380039;28;96960;-83
2023/12/22 03:14:21;;;;;;;18.77;8.60;;;;;;;6.31;95.45;101992.84;10382286;28;96720;-84
2023/12/22 03:19:25;;;;;;;17.27;8.63;;;;;;;6.35;95.63;101989.34;10382276;28;96627;-85
2023/12/22 03:24:31;;;;;;;16.40;7.75;;;;;;;6.41;95.33;101992.00;10381757;28;96743;-84
2023/12/22 03:29:36;;;;;;;17.33;8.15;;;;;;;6.43;95.02;101984.19;10381885;28;97457;-83
2023/12/22 03:34:40;;;;;;;14.48;7.63;;;;;;;6.27;94.87;101972.78;10381400;28;96660;-84
2023/12/22 03:39:49;;;;;;;18.63;8.00;;;;;;;6.31;95.40;101973.66;10380772;28;96779;-84
2023/12/22 03:44:56;;;;;;;16.13;7.15;;;;;;;6.31;95.47;101965.81;10381261;28;96578;-84
2023/12/22 03:50:00;;;;;;;14.07;6.95;;;;;;;6.32;95.32;101963.22;10341805;28;96693;-84
2023/12/22 03:55:09;;;;;;;19.37;8.03;;;;;;;6.30;95.39;101948.41;10381193;28;96541;-84
2023/12/22 04:00:16;;;;;;;15.07;7.38;;;;;;;6.26;95.49;101939.66;10379617;28;97399;-83
2023/12/22 04:05:21;;;;;;;15.27;8.05;;;;;;;6.23;95.80;101923.94;10380198;28;97096;-83
2023/12/22 04:10:27;;;;;;;15.27;7.78;;;;;;;6.21;95.43;101922.22;10380253;28;96722;-84
2023/12/22 04:15:31;;;;;;;16.38;6.93;;;;;;;6.10;95.47;101913.44;10380095;28;97110;-84
2023/12/22 04:20:35;;;;;;;13.23;7.10;;;;;;;6.04;96.13;101916.03;10379835;28;96596;-84
2023/12/22 04:25:42;;;;;;;16.00;7.40;;;;;;;6.07;96.00;101910.81;10379821;28;96723;-83
2023/12/22 04:30:50;;;;;;;17.52;8.35;;;;;;;6.13;96.05;101918.66;10379814;28;96640;-84
2023/12/22 04:35:54;;;;;;;14.18;7.00;;;;;;;6.13;95.39;101910.81;10379706;28;96754;-84
2023/12/22 04:41:01;;;;;;;14.63;6.65;;;;;;;6.04;95.21;101911.66;10379125;28;97305;-84
2023/12/22 04:46:06;;;;;;;13.30;7.13;;;;;;;6.05;95.98;101908.19;10379296;28;96629;-84
2023/12/22 04:51:10;;;;;;;12.93;6.40;;;;;;;6.10;95.38;101910.81;10378086;28;96679;-83
2023/12/22 04:56:18;;;;;;;11.70;6.13;;;;;;;6.08;95.18;101896.88;10378697;28;97360;-84
2023/12/22 05:01:23;;;;;;;12.10;5.53;;;;;;;6.11;94.48;101889.06;10337437;28;96613;-85
2023/12/22 05:06:28;;;;;;;15.75;5.78;;;;;;;6.05;94.81;101889.03;10350866;28;96796;-84
2023/12/22 05:11:38;;;;;;;11.20;5.63;;;;;;;5.98;94.29;101879.41;10378388;28;96632;-83
2023/12/22 05:16:42;;;;;;;12.55;5.53;;;;;;;5.88;94.91;101877.63;10378714;28;97000;-83
2023/12/22 05:21:46;;;;;;;11.02;5.68;;;;;;;5.83;95.15;101879.34;10377670;28;96662;-84
2023/12/22 05:26:50;;;;;;;8.88;4.68;;;;;;;5.82;95.39;101874.97;10378482;28;97098;-84
2023/12/22 05:31:54;;;;;;;14.10;5.80;;;;;;;5.80;95.01;101869.72;10376852;28;97199;-84
2023/12/22 05:36:57;;;;;;;12.98;5.68;;;;;;;5.82;95.78;101856.66;10377242;28;96676;-84
2023/12/22 05:42:02;;;;;;;12.57;5.88;;;;;;;5.91;94.54;101864.56;10376297;28;96906;-83
2023/12/22 05:47:06;;;;;;;9.80;5.32;;;;;;;5.96;94.09;101865.47;10377089;28;96580;-83
2023/12/22 05:52:10;;;;;;;10.75;5.50;;;;;;;5.82;94.67;101868.00;10376962;28;96698;-83
2023/12/22 05:57:14;;;;;;;12.38;5.10;;;;;;;5.81;94.30;101860.16;10376317;28;96674;-83
2023/12/22 06:02:19;;;;;;;9.30;4.93;;;;;;;5.96;94.39;101874.19;10376598;28;96746;-83
2023/12/22 06:07:24;;;;;;;12.48;5.30;;;;;;;5.97;93.82;101868.06;10376079;28;96786;-84
2023/12/22 06:12:30;;;;;;;9.00;4.13;;;;;;;5.92;93.48;101872.41;10376557;28;96669;-83
2023/12/22 06:17:35;;;;;;;8.25;4.97;;;;;;;5.88;93.59;101877.63;10376957;28;96727;-83
2023/12/22 06:22:39;;;;;;;13.40;5.45;;;;;;;5.92;93.83;101882.00;10376068;28;97434;-84
2023/12/22 06:27:47;;;;;;;8.83;4.87;;;;;;;5.86;94.10;101885.44;10376127;28;96762;-83
2023/12/22 06:32:52;;;;;;;10.70;4.38;;;;;;;5.78;94.47;101879.28;10374971;28;96864;-84
2023/12/22 06:38:01;;;;;;;10.77;4.68;;;;;;;5.80;94.03;101884.56;10375200;28;96809;-84
2023/12/22 06:43:08;;;;;;;10.00;4.82;;;;;;;5.85;93.95;101891.53;10381417;28;97244;-84
2023/12/22 06:48:13;;;;;;;8.50;4.53;;;;;;;5.87;93.61;101887.19;10382608;28;96810;-84
2023/12/22 06:53:17;;;;;;;10.07;4.63;;;;;;;5.87;93.67;101902.84;10382682;28;97216;-83
2023/12/22 06:58:30;;;;;;;9.63;4.38;;;;;;;5.78;93.32;101912.41;10382356;28;96582;-84
2023/12/22 07:03:35;;;;;;;7.93;4.30;;;;;;;5.72;94.13;101907.13;10382335;28;97687;-82
2023/12/22 07:08:39;;;;;;;9.23;4.73;;;;;;;5.66;93.45;101913.16;10383082;28;97079;-83
2023/12/22 07:13:45;;;;;;;9.68;4.28;;;;;;;5.67;94.05;101912.31;10382444;28;96743;-83
2023/12/22 07:18:49;;;;;;;7.90;4.10;;;;;;;5.71;94.02;101918.44;10381732;28;97731;-84
2023/12/22 07:23:52;;;;;;;5.80;3.33;;;;;;;5.63;94.07;101924.47;10380681;28;96969;-84
2023/12/22 07:28:58;;;;;;;10.15;4.43;;;;;;;5.63;93.43;101926.22;10381569;28;96626;-84
2023/12/22 07:34:01;;;;;;;6.47;3.53;;;;;;;5.66;93.77;101928.84;10381319;28;96676;-84
2023/12/22 07:39:06;;;;;;;8.77;4.50;;;;;;;5.61;92.83;101941.88;10410458;28;96687;-84
2023/12/22 07:44:11;;;;;;;8.30;4.43;;;;;;;5.63;93.40;101944.50;10381223;28;97169;-83
2023/12/22 07:49:15;;;;;;;8.43;4.93;;;;;;;5.61;93.35;101943.59;10380957;28;97185;-83
2023/12/22 07:54:19;;;;;;;6.90;4.17;;;;;;;5.60;94.04;101955.81;10380483;28;97704;-83
2023/12/22 07:59:24;;;;;;;8.30;4.05;;;;;;;5.66;93.52;101963.66;10380758;28;96748;-83
2023/12/22 08:04:34;;;;;;;8.32;4.15;;;;;;;5.73;93.09;101961.97;10380250;28;97334;-83
2023/12/22 08:09:38;;;;;;;8.05;4.40;;;;;;;5.75;92.88;101965.47;10380106;28;97265;-83
2023/12/22 08:14:45;;;;;;;9.73;3.83;;;;;;;5.75;93.29;101968.09;10378976;28;96811;-83
2023/12/22 08:19:49;;;;;;;7.68;4.13;;;;;;;5.75;93.19;101975.91;10381048;28;97041;-83
2023/12/22 08:24:56;;;;;;;8.95;3.80;;;;;;;5.80;92.51;101984.66;10379624;28;97244;-84
2023/12/22 08:30:04;;;;;;;8.20;4.13;;;;;;;5.81;92.01;101999.47;10380123;28;97615;-84
2023/12/22 08:35:10;;;;;;;8.10;4.13;;;;;;;5.87;91.95;102012.56;10379822;28;96586;-83
2023/12/22 08:40:15;;;;;;;6.10;3.30;;;;;;;5.89;91.46;102002.13;10379750;28;97156;-84
2023/12/22 08:45:21;;;;;;;4.77;2.80;;;;;;;5.99;89.90;102002.22;10379247;28;97367;-82
2023/12/22 08:50:25;;;;;;;6.90;3.55;;;;;;;6.21;89.12;102018.91;10379627;28;96599;-84
2023/12/22 08:55:35;;;;;;;5.40;3.05;;;;;;;6.31;87.94;102025.94;10378919;28;96662;-83
2023/12/22 09:00:50;;;;;;;5.72;3.47;;;;;;;6.33;87.58;102025.06;10378952;28;96677;-84
2023/12/22 09:05:56;;;;;;;7.63;3.30;;;;;;;6.40;86.40;102018.16;10375987;28;96667;-83
2023/12/22 09:11:00;;;;;;;8.38;3.88;;;;;;;6.52;85.93;102031.28;10378744;28;96705;-83
2023/12/22 09:16:07;;;;;;;4.85;2.67;;;;;;;6.55;85.69;102034.81;10378275;28;96684;-83
2023/12/22 09:21:11;;;;;;;5.07;3.22;;;;;;;6.70;84.91;102058.41;10378114;28;96662;-83
2023/12/22 09:26:15;;;;;;;4.30;2.63;;;;;;;6.72;84.60;102055.78;10378072;28;97412;-85
2023/12/22 09:31:22;;;;;;;7.35;3.92;;;;;;;6.91;84.56;102054.16;10377584;28;97326;-84
2023/12/22 09:36:28;;;;;;;5.40;2.83;;;;;;;7.03;83.45;102051.56;10377485;28;96612;-83
2023/12/22 09:41:32;;;;;;;8.30;3.47;;;;;;;7.18;82.81;102051.66;10377852;28;97183;-83
2023/12/22 09:46:43;;;;;;;6.00;3.95;;;;;;;7.09;82.43;102042.03;10377074;28;96709;-84
2023/12/22 09:51:49;;;;;;;7.38;3.22;;;;;;;7.26;82.13;102028.97;10377146;28;96560;-83
2023/12/22 09:56:58;;;;;;;6.30;2.90;;;;;;;7.50;81.39;102022.03;10375214;28;96782;-83
2023/12/22 10:02:20;;;;;;;4.70;3.33;;;;;;;7.70;81.03;102027.28;10377012;28;96708;-85
2023/12/22 10:07:30;;;;;;;3.85;2.72;;;;;;;7.81;80.57;102025.53;10375938;28;96538;-83
2023/12/22 10:12:35;;;;;;;4.57;2.88;;;;;;;7.84;79.90;102025.50;10376716;28;96884;-84
2023/12/22 10:17:48;;;;;;;5.07;3.15;;;;;;;7.95;79.05;102039.50;10376040;28;97136;-83
2023/12/22 10:22:53;;;;;;;5.68;3.38;;;;;;;8.02;79.00;102024.63;10376523;28;97126;-84
2023/12/22 10:27:58;;;;;;;7.20;3.15;;;;;;;8.14;78.41;102020.25;10376309;28;97149;-84
2023/12/22 10:33:10;;;;;;;5.70;3.03;;;;;;;8.37;78.13;102017.59;10377092;28;96707;-84
2023/12/22 10:38:24;;;;;;;5.65;3.55;;;;;;;8.31;77.33;102010.59;10376019;28;96735;-84
2023/12/22 10:43:29;;;;;;;4.00;2.70;;;;;;;8.47;76.85;101995.69;10376046;28;96689;-83
2023/12/22 10:48:38;;;;;;;4.85;3.28;;;;;;;8.56;76.34;102004.41;10374141;28;97217;-83
2023/12/22 10:53:44;;;;;;;6.88;3.38;;;;;;;8.63;75.76;101994.78;10375127;28;96765;-83
2023/12/22 10:58:49;;;;;;;5.47;3.00;;;;;;;8.72;74.87;101989.50;10374791;28;96673;-83
2023/12/22 11:03:59;;;;;;;;;;;;;;;8.93;75.04;101981.50;10375683;28;97189;-84
2023/12/22 11:09:08;;;;;;;5.20;2.60;;;;;;;9.25;73.39;101982.22;10375333;28;96749;-83
2023/12/22 11:14:14;;;;;;;4.55;2.80;;;;;;;9.32;72.16;101978.66;10374677;28;96894;-83
2023/12/22 11:19:22;;;;;;;6.53;3.85;;;;;;;9.49;72.37;101968.00;10374428;28;97396;-83
2023/12/22 11:24:29;;;;;;;6.22;3.63;;;;;;;9.51;70.88;101956.63;10375099;28;97405;-84
2023/12/22 11:29:35;;;;;;;4.80;2.63;;;;;;;9.65;69.91;101945.97;10452938;22;97572;-84
2023/12/22 11:34:47;;;;;;;5.95;2.67;;;;;;;9.85;70.20;101928.25;10432497;27;97325;-83
2023/12/22 11:39:52;;;;;;;5.00;3.13;;;;;;;9.84;68.95;101934.41;10422166;28;96621;-83
2023/12/22 11:45:12;;;;;;;8.18;3.38;;;;;;;10.09;69.54;101930.66;10439972;27;99280;-83
2023/12/22 11:50:31;;;;;;;6.20;2.72;;;;;;;10.04;69.29;101922.78;10465020;27;96755;-83
2023/12/22 11:56:04;;;;;;;7.05;3.55;;;;;;;10.15;68.06;101917.41;10440011;27;96877;-82
2023/12/22 12:01:09;;;;;;;9.45;3.60;;;;;;;10.23;67.08;101897.13;10422628;27;96777;-84
2023/12/22 12:06:33;;;;;;;6.85;3.72;;;;;;;10.25;66.90;101892.72;10422227;28;96930;-83
2023/12/22 12:12:11;;;;;;;7.88;3.33;;;;;;;10.46;66.61;101910.00;10422007;28;97407;-84
2023/12/22 12:17:18;;;;;;;5.57;3.40;;;;;;;10.59;67.16;101882.66;10322628;28;96903;-82
2023/12/22 12:22:24;;;;;;;6.75;2.33;;;;;;;10.75;65.66;101863.13;10397671;28;96984;-84
2023/12/22 12:27:28;;;;;;;8.00;2.78;;;;;;;10.77;66.05;101867.47;10384678;28;96742;-83
2023/12/22 12:32:33;;;;;;;4.70;2.67;;;;;;;10.92;64.80;101853.22;10420254;28;96597;-83
2023/12/22 12:37:38;;;;;;;6.13;2.55;;;;;;;10.95;64.90;101848.75;10420944;28;96992;-83
2023/12/22 12:42:42;;;;;;;3.38;2.25;;;;;;;11.19;63.32;101829.94;10420867;27;96781;-82
2023/12/22 12:47:56;;;;;;;3.97;2.17;;;;;;;11.21;63.75;101822.00;10420672;28;96777;-83
2023/12/22 12:53:01;;;;;;;5.03;2.38;;;;;;;11.31;63.67;101819.19;10420983;28;96537;-83
2023/12/22 12:58:05;;;;;;;4.82;2.20;;;;;;;11.50;64.16;101821.47;10419870;28;96825;-83
2023/12/22 13:03:09;;;;;;;4.32;2.00;;;;;;;11.52;63.40;101806.50;10420487;28;96770;-83
2023/12/22 13:08:14;;;;;;;4.78;2.50;;;;;;;11.59;62.79;101797.59;10420847;28;96682;-83
2023/12/22 13:13:18;;;;;;;6.40;2.50;;;;;;;11.60;62.72;101783.53;10420120;28;97540;-84
2023/12/22 13:18:22;;;;;;;5.13;2.40;;;;;;;12.40;61.37;101782.66;10424035;27;96922;-82
2023/12/22 13:23:27;;;;;;;6.23;3.03;;;;;;;13.52;58.09;101767.50;10452177;27;97489;-83
2023/12/22 13:28:34;;;;;;;5.10;2.60;;;;;;;13.83;57.38;101770.16;10461962;27;97156;-83
2023/12/22 13:33:39;;;;;;;7.63;3.17;;;;;;;13.38;57.88;101759.94;10461969;27;97576;-83
2023/12/22 13:38:49;;;;;;;5.90;2.53;;;;;;;12.55;59.77;101750.63;10428273;27;97228;-82
2023/12/22 13:43:57;;;;;;;3.92;2.78;;;;;;;12.22;60.78;101748.78;10419142;28;97485;-83
2023/12/22 13:49:03;;;;;;;5.43;2.88;;;;;;;12.05;62.20;101746.50;10418470;27;96617;-82
2023/12/22 13:54:10;;;;;;;5.97;2.83;;;;;;;11.93;62.37;101727.41;10418809;28;96776;-83
2023/12/22 13:59:14;;;;;;;6.50;3.13;;;;;;;12.01;62.48;101736.91;10419402;28;97230;-83
2023/12/22 14:04:20;;;;;;;7.70;3.17;;;;;;;11.84;63.58;101719.72;10418433;28;97469;-83
2023/12/22 14:09:31;;;;;;;;;;;;;;;11.81;62.98;101720.66;10418440;28;96931;-83
2023/12/22 14:14:35;;;;;;;5.07;3.17;;;;;;;11.86;63.64;101712.63;10417616;28;96854;-83
2023/12/22 14:19:40;;;;;;;4.70;2.77;;;;;;;11.91;63.16;101690.53;10417986;28;97387;-83
2023/12/22 14:24:48;;;;;;;6.87;3.07;;;;;;;11.93;62.54;101675.53;10417382;28;96686;-83
2023/12/22 14:29:52;;;;;;;6.13;2.92;;;;;;;12.09;62.20;101666.38;10350558;28;97187;-83
2023/12/22 14:34:57;;;;;;;5.23;2.90;;;;;;;12.18;61.74;101670.56;10334316;28;96811;-83
2023/12/22 14:40:08;;;;;;;3.88;2.42;;;;;;;12.26;60.63;101658.06;10334432;28;96786;-83
2023/12/22 14:45:12;;;;;;;5.30;2.92;;;;;;;12.31;60.59;101664.09;10334643;28;96955;-83
2023/12/22 14:50:18;;;;;;;4.97;2.67;;;;;;;13.33;57.48;101653.44;10334824;28;96780;-84
2023/12/22 14:55:27;;;;;;;5.68;3.03;;;;;;;13.96;55.42;101641.84;10334739;28;96711;-83
2023/12/22 15:00:32;;;;;;;5.22;2.78;;;;;;;14.22;54.56;101647.22;10405694;28;96557;-84
2023/12/22 15:05:36;;;;;;;5.17;3.10;;;;;;;14.45;53.40;101652.63;10340338;28;97977;-83
2023/12/22 15:10:46;;;;;;;3.90;2.38;;;;;;;14.61;51.33;101654.69;10341166;28;96711;-83
2023/12/22 15:15:50;;;;;;;4.47;2.08;;;;;;;14.90;52.22;101648.41;10363093;28;96577;-82
2023/12/22 15:20:56;;;;;;;3.70;2.67;;;;;;;14.83;51.29;101655.69;10381615;28;96711;-84
2023/12/22 15:26:03;;;;;;;3.10;1.92;;;;;;;14.87;52.02;101668.88;10417000;28;97002;-83
2023/12/22 15:31:09;;;;;;;3.38;2.05;;;;;;;14.83;51.26;101658.34;10423618;28;96892;-84
2023/12/22 15:36:21;;;;;;;3.35;2.30;;;;;;;14.98;51.78;101667.56;10383404;28;97432;-84
2023/12/22 15:41:30;;;;;;;3.67;2.10;;;;;;;14.90;51.71;101672.28;10340701;28;96644;-84
2023/12/22 15:46:35;;;;;;;4.28;2.70;;;;;;;14.66;51.77;101665.16;10339300;28;96810;-84
2023/12/22 15:51:39;;;;;;;4.28;2.65;;;;;;;14.48;52.54;101673.72;10347698;28;97476;-84
2023/12/22 15:56:46;;;;;;;5.82;2.60;;;;;;;14.42;52.99;101679.22;10379266;28;96777;-83
2023/12/22 16:01:52;;;;;;;4.57;2.63;;;;;;;14.29;53.80;101675.22;10380814;28;96700;-84
2023/12/22 16:06:56;;;;;;;4.75;2.47;;;;;;;14.06;54.43;101685.66;10380345;28;98224;-84
2023/12/22 16:12:03;;;;;;;5.47;2.97;;;;;;;13.45;55.42;101686.59;10379365;28;96853;-83
2023/12/22 16:17:08;;;;;;;4.53;2.75;;;;;;;13.11;56.80;101694.59;10380013;28;96847;-83
2023/12/22 16:22:13;;;;;;;4.72;2.35;;;;;;;12.77;58.03;101703.47;10420238;28;97184;-83
2023/12/22 16:27:20;;;;;;;5.60;3.10;;;;;;;12.47;58.82;101710.34;10419748;28;97595;-84
2023/12/22 16:32:24;;;;;;;5.32;2.92;;;;;;;12.26;59.99;101709.06;10422382;28;96771;-83
2023/12/22 16:37:29;;;;;;;5.60;3.63;;;;;;;12.06;60.51;101702.53;10421317;28;96751;-84
2023/12/22 16:42:34;;;;;;;5.75;3.25;;;;;;;11.99;61.03;101706.19;10421149;28;97715;-84
2023/12/22 16:47:38;;;;;;;5.30;3.17;;;;;;;11.84;61.44;101711.81;10419908;28;96792;-83
2023/12/22 16:52:41;;;;;;;7.03;4.53;;;;;;;11.74;62.49;101715.53;10451785;27;96794;-83
2023/12/22 16:57:46;;;;;;;4.97;3.28;;;;;;;11.69;62.82;101720.03;10459454;27;96695;-82
2023/12/22 17:02:50;;;;;;;5.45;3.53;;;;;;;11.56;63.48;101718.56;10420334;28;96661;-84
2023/12/22 17:07:54;;;;;;;5.50;3.60;;;;;;;11.49;63.50;101724.84;10420056;28;96772;-83
2023/12/22 17:12:59;;;;;;;6.80;3.83;;;;;;;11.43;64.15;101723.22;10420456;28;97593;-83
2023/12/22 17:18:04;;;;;;;7.75;3.75;;;;;;;11.37;64.21;101733.88;10425521;27;96653;-83
2023/12/22 17:23:08;;;;;;;7.85;4.10;;;;;;;11.35;64.46;101718.06;10462701;27;96798;-83
2023/12/22 17:28:12;;;;;;;7.43;3.90;;;;;;;11.32;64.57;101722.53;10460053;27;96996;-83
2023/12/22 17:33:18;;;;;;;6.57;3.70;;;;;;;11.26;65.13;101726.19;10457305;27;96808;-83
2023/12/22 17:38:21;;;;;;;7.40;4.05;;;;;;;11.28;64.24;101723.50;10418223;28;97246;-83
2023/12/22 17:43:26;;;;;;;10.02;4.03;;;;;;;11.19;64.78;101721.94;10419274;28;96990;-83
2023/12/22 17:48:30;;;;;;;4.85;3.38;;;;;;;11.17;65.07;101723.72;10424940;27;96834;-84
2023/12/22 17:53:33;;;;;;;7.05;3.97;;;;;;;11.14;64.67;101720.25;10429423;27;97373;-83
2023/12/22 17:58:38;;;;;;;7.93;3.90;;;;;;;11.11;65.69;101717.69;10418328;28;96779;-83
2023/12/22 18:03:43;;;;;;;10.60;5.00;;;;;;;10.99;66.21;101723.16;10418905;28;96556;-83
2023/12/22 18:08:47;;;;;;;8.45;4.35;;;;;;;10.86;66.02;101722.50;10418118;28;97013;-83
2023/12/22 18:13:53;;;;;;;7.60;4.43;;;;;;;10.77;67.28;101724.41;10418945;28;96680;-83
2023/12/22 18:18:56;;;;;;;8.70;4.57;;;;;;;10.72;67.06;101720.97;10430930;27;96689;-83
2023/12/22 18:24:00;;;;;;;7.55;5.03;;;;;;;10.54;67.94;101727.41;10457934;27;96739;-84
2023/12/22 18:29:05;;;;;;;10.13;5.13;;;;;;;10.51;67.87;101727.47;10416444;28;96784;-84
2023/12/22 18:34:08;;;;;;;8.65;5.03;;;;;;;10.45;68.19;101726.72;10417873;28;97418;-82
2023/12/22 18:39:12;;;;;;;10.20;5.22;;;;;;;10.34;69.42;101723.34;10417143;28;96726;-83
2023/12/22 18:44:17;;;;;;;9.88;4.95;;;;;;;10.28;69.83;101724.34;10417069;28;96630;-84
2023/12/22 18:49:21;;;;;;;9.07;5.43;;;;;;;10.27;69.06;101730.47;10437801;27;96770;-83
2023/12/22 18:54:24;;;;;;;8.25;4.47;;;;;;;10.26;69.45;101726.13;10459028;27;96656;-83
2023/12/22 18:59:29;;;;;;;9.88;4.80;;;;;;;10.25;68.72;101717.34;10445222;27;96615;-83
2023/12/22 19:04:32;;;;;;;8.23;5.10;;;;;;;10.25;69.68;101719.09;10417620;28;97222;-84
2023/12/22 19:09:36;;;;;;;11.40;5.22;;;;;;;10.33;68.97;101719.00;10416785;28;96838;-84
2023/12/22 19:14:42;;;;;;;8.18;5.03;;;;;;;10.28;68.58;101727.81;10416761;28;97820;-83
2023/12/22 19:19:47;;;;;;;8.88;4.50;;;;;;;10.26;68.80;101729.59;10436159;27;97114;-83
2023/12/22 19:24:52;;;;;;;10.37;5.20;;;;;;;10.28;68.99;101727.81;10458155;27;97583;-84
2023/12/22 19:29:57;;;;;;;9.27;5.00;;;;;;;10.17;69.66;101721.00;10458318;27;96902;-82
2023/12/22 19:35:02;;;;;;;;;;;;;;;10.08;70.08;101723.75;10431616;27;97776;-83
2023/12/22 19:40:07;;;;;;;8.93;4.87;;;;;;;9.98;69.99;101719.50;10416055;28;96776;-82
2023/12/22 19:45:12;;;;;;;11.30;5.47;;;;;;;9.97;69.71;101725.66;10416442;28;97176;-84
2023/12/22 19:50:15;;;;;;;13.30;6.40;;;;;;;9.88;71.47;101725.78;10447531;27;97263;-82
2023/12/22 19:55:19;;;;;;;13.15;5.63;;;;;;;9.97;70.79;101733.53;10423499;28;97564;-84
2023/12/22 20:00:27;;;;;;;7.65;5.28;;;;;;;9.90;70.18;101738.00;10422135;28;96760;-83
2023/12/22 20:05:31;;;;;;;10.15;5.63;;;;;;;9.99;70.28;101735.28;10422430;28;96679;-83
2023/12/22 20:10:36;;;;;;;;;;;;;;;9.95;70.57;101735.34;10422247;28;97016;-83
2023/12/22 20:15:44;;;;;;;12.05;6.45;;;;;;;9.87;71.16;101734.56;10422450;28;96710;-83
2023/12/22 20:20:48;;;;;;;10.60;5.95;;;;;;;9.83;71.01;101743.38;10451746;27;97052;-83
2023/12/22 20:25:52;;;;;;;10.80;5.77;;;;;;;9.89;71.37;101740.66;10437115;27;97187;-84
2023/12/22 20:30:57;;;;;;;10.68;5.63;;;;;;;9.77;71.28;101736.44;10421679;28;96616;-83
2023/12/22 20:36:01;;;;;;;13.38;6.35;;;;;;;9.82;71.21;101739.00;10421240;28;96709;-83
2023/12/22 20:41:07;;;;;;;12.30;6.65;;;;;;;9.86;70.34;101748.59;10421206;28;97092;-83
2023/12/22 20:46:12;;;;;;;12.50;7.43;;;;;;;9.74;70.54;101746.13;10438449;27;96682;-83
2023/12/22 20:51:18;;;;;;;12.35;6.15;;;;;;;9.70;70.76;101758.44;10462925;27;96614;-83
2023/12/22 20:56:24;;;;;;;8.60;5.20;;;;;;;9.58;71.55;101752.44;10462616;27;96739;-83
2023/12/22 21:01:28;;;;;;;13.20;5.90;;;;;;;9.58;71.88;101742.81;10419783;27;97290;-83
2023/12/22 21:06:32;;;;;;;9.50;5.30;;;;;;;9.73;70.62;101736.47;10378837;28;97239;-83
2023/12/22 21:11:40;;;;;;;11.70;6.85;;;;;;;9.68;71.55;101725.16;10378818;28;96857;-83
2023/12/22 21:16:45;;;;;;;13.15;6.82;;;;;;;9.56;72.22;101734.06;10402556;28;96789;-82
2023/12/22 21:21:49;;;;;;;13.20;6.75;;;;;;;9.34;73.13;101739.59;10457408;27;96752;-84
2023/12/22 21:26:52;;;;;;;13.88;6.80;;;;;;;9.27;73.36;101751.94;10460841;27;96790;-83
2023/12/22 21:31:58;;;;;;;15.18;7.75;;;;;;;9.22;73.64;101737.94;10451638;27;96559;-83
2023/12/22 21:37:02;;;;;;;13.07;6.50;;;;;;;9.19;73.80;101729.22;10420213;28;96705;-82
2023/12/22 21:42:06;;;;;;;12.43;6.53;;;;;;;9.05;74.59;101732.84;10419852;27;96788;-84
2023/12/22 21:47:11;;;;;;;15.07;7.20;;;;;;;8.98;74.48;101739.03;10460999;27;96755;-84
2023/12/22 21:52:15;;;;;;;;;;;;;;;8.96;75.20;101732.09;10423267;27;97184;-83
2023/12/22 21:57:18;;;;;;;;;;;;;;;9.02;74.45;101732.88;10419347;28;97305;-83
2023/12/22 22:02:23;;;;;;;;;;;;;;;9.05;74.75;101727.59;10419007;28;96656;-84
2023/12/22 22:07:26;;;;;;;;;;;;;;;9.04;74.27;101725.00;10418581;27;96942;-83
2023/12/22 22:12:29;;;;;;;;;;;;;;;9.04;74.50;101731.13;10418582;27;96946;-83
2023/12/22 22:17:34;;;;;;;;;;;;;;;9.17;73.54;101721.38;10420387;27;97288;-83
2023/12/22 22:22:37;;;;;;;;;;;;;;;9.21;73.29;101715.19;10453862;27;97408;-82
2023/12/22 22:27:40;;;;;;;;;;;;;;;9.22;73.02;101714.31;10418965;28;97391;-83
2023/12/22 22:32:45;;;;;;;;;;;;;;;9.15;73.82;101718.72;10418620;28;96912;-83
2023/12/22 22:37:48;;;;;;;;;;;;;;;9.12;73.56;101713.53;10418778;28;97331;-83
2023/12/22 22:42:51;;;;;;;;;;;;;;;9.04;74.20;101722.38;10417305;27;96748;-83
2023/12/22 22:47:57;;;;;;;;;;;;;;;9.10;73.68;101723.16;10417952;28;96912;-83
2023/12/22 22:53:00;;;;;;;;;;;;;;;9.10;73.25;101740.69;10418218;28;96826;-82
2023/12/22 22:58:04;;;;;;;;;;;;;;;8.99;74.32;101725.06;10417362;28;97154;-83
2023/12/22 23:03:09;;;;;;;;;;;;;;;8.97;74.19;101732.06;10417239;28;96686;-83
2023/12/22 23:08:12;;;;;;;;;;;;;;;8.99;73.76;101725.06;10417185;28;96667;-83
2023/12/22 23:13:16;;;;;;;;;;;;;;;8.93;74.54;101716.38;10417033;28;96604;-83
2023/12/22 23:18:23;;;;;;;;;;;;;;;8.86;74.49;101715.53;10426204;27;97378;-83
2023/12/22 23:23:27;;;;;;;;;;;;;;;8.87;74.75;101727.78;10460941;27;96973;-83
2023/12/22 23:28:31;;;;;;;;;;;;;;;8.80;75.25;101726.09;10465569;27;96900;-84
2023/12/22 23:33:37;;;;;;;;;;;;;;;8.74;74.78;101726.16;10433089;27;97349;-83
2023/12/22 23:38:41;;;;;;;;;;;;;;;8.78;74.89;101735.75;10441106;27;97361;-83
2023/12/22 23:43:45;;;;;;;;;;;;;;;8.75;74.37;101735.78;10465643;27;96754;-83